Time,TemperatureF,DewpointF,PressureIn,WindDirection,WindDirectionDegrees,WindSpeedMPH,WindSpeedGustMPH,Humidity,HourlyPrecipIn,Conditions,Clouds,dailyrainin,SoftwareType,DateUTC
2013-09-30 00:13:00,57.7,53.0,29.96,NE,41,1.0,-999.0,85,-99.99,,,0.24,weatherlink.com 1.10,2013-09-30 04:13:00,
2013-09-30 00:28:00,57.3,53.0,29.96,NE,41,0.0,-999.0,86,-99.99,,,0.00,weatherlink.com 1.10,2013-09-30 04:28:00,
2013-09-30 00:43:00,57.3,53.0,29.96,NE,41,0.0,-999.0,86,-99.99,,,0.00,weatherlink.com 1.10,2013-09-30 04:43:00,
2013-09-30 00:58:00,57.8,54.0,29.96,NE,41,2.0,-999.0,86,-99.99,,,0.00,weatherlink.com 1.10,2013-09-30 04:58:00,
2013-09-30 01:13:00,58.3,54.0,29.96,NE,41,0.0,-999.0,85,-99.99,,,0.00,weatherlink.com 1.10,2013-09-30 05:13:00,
2013-09-30 01:28:00,58.4,54.0,29.96,NE,41,0.0,-999.0,85,-99.99,,,0.00,weatherlink.com 1.10,2013-09-30 05:28:00,
2013-09-30 01:43:00,58.4,54.0,29.95,NE,41,1.0,-999.0,85,-99.99,,,0.00,weatherlink.com 1.10,2013-09-30 05:43:00,
2013-09-30 01:58:00,58.2,54.0,29.96,NE,41,1.0,-999.0,85,-99.99,,,0.00,weatherlink.com 1.10,2013-09-30 05:58:00,
2013-09-30 02:28:00,58.0,54.0,29.96,NE,41,0.0,-999.0,85,-99.99,,,0.00,weatherlink.com 1.10,2013-09-30 06:28:00,
2013-09-30 02:43:00,57.8,53.0,29.96,NE,41,1.0,-999.0,85,-99.99,,,0.00,weatherlink.com 1.10,2013-09-30 06:43:00,
2013-09-30 02:58:00,57.6,54.0,29.95,NE,41,0.0,-999.0,86,-99.99,,,0.00,weatherlink.com 1.10,2013-09-30 06:58:00,
2013-09-30 03:13:00,57.5,54.0,29.95,NE,41,0.0,-999.0,87,-99.99,,,0.00,weatherlink.com 1.10,2013-09-30 07:13:00,
2013-09-30 03:28:00,57.5,54.0,29.95,NE,41,0.0,-999.0,88,-99.99,,,0.00,weatherlink.com 1.10,2013-09-30 07:28:00,
2013-09-30 03:43:00,57.4,54.0,29.95,NE,41,0.0,-999.0,89,-99.99,,,0.00,weatherlink.com 1.10,2013-09-30 07:43:00,
2013-09-30 03:58:00,57.4,55.0,29.95,NE,41,0.0,-999.0,90,-99.99,,,0.00,weatherlink.com 1.10,2013-09-30 07:58:00,
2013-09-30 04:13:00,57.6,55.0,29.94,NE,41,1.0,-999.0,91,-99.99,,,0.00,weatherlink.com 1.10,2013-09-30 08:13:00,
2013-09-30 04:28:00,57.7,56.0,29.94,NE,41,0.0,-999.0,94,-99.99,,,0.00,weatherlink.com 1.10,2013-09-30 08:28:00,
2013-09-30 04:43:00,57.8,56.0,29.94,NE,41,0.0,-999.0,95,-99.99,,,0.00,weatherlink.com 1.10,2013-09-30 08:43:00,
2013-09-30 04:58:00,58.1,57.0,29.95,NE,41,0.0,-999.0,96,-99.99,,,0.00,weatherlink.com 1.10,2013-09-30 08:58:00,
2013-09-30 05:13:00,58.0,57.0,29.95,NE,41,0.0,-999.0,96,-99.99,,,0.00,weatherlink.com 1.10,2013-09-30 09:13:00,
2013-09-30 05:28:00,58.1,57.0,29.94,NE,41,1.0,-999.0,97,-99.99,,,0.00,weatherlink.com 1.10,2013-09-30 09:28:00,
2013-09-30 05:43:00,58.3,58.0,29.94,NE,41,0.0,-999.0,97,-99.99,,,0.00,weatherlink.com 1.10,2013-09-30 09:43:00,
2013-09-30 05:58:00,58.5,58.0,29.94,NE,41,0.0,-999.0,98,-99.99,,,0.00,weatherlink.com 1.10,2013-09-30 09:58:00,
2013-09-30 06:13:00,58.8,58.0,29.95,NE,41,0.0,-999.0,98,-99.99,,,0.00,weatherlink.com 1.10,2013-09-30 10:13:00,
2013-09-30 06:28:00,59.0,59.0,29.94,NE,41,0.0,-999.0,98,-99.99,,,0.00,weatherlink.com 1.10,2013-09-30 10:28:00,
2013-09-30 06:43:00,59.1,59.0,29.95,NE,41,0.0,-999.0,98,-99.99,,,0.00,weatherlink.com 1.10,2013-09-30 10:43:00,
2013-09-30 06:58:00,59.1,59.0,29.95,SSW,213,4.0,-999.0,98,-99.99,,,0.00,weatherlink.com 1.10,2013-09-30 10:58:00,
2013-09-30 07:13:00,59.3,59.0,29.96,SSW,200,0.0,-999.0,98,-99.99,,,0.00,weatherlink.com 1.10,2013-09-30 11:13:00,
2013-09-30 07:28:00,59.3,59.0,29.96,SW,222,3.0,-999.0,98,-99.99,,,0.00,weatherlink.com 1.10,2013-09-30 11:28:00,
2013-09-30 07:43:00,59.4,59.0,29.97,SW,222,2.0,-999.0,97,-99.99,,,0.00,weatherlink.com 1.10,2013-09-30 11:43:00,
2013-09-30 07:58:00,59.4,59.0,29.97,SW,215,0.0,-999.0,97,-99.99,,,0.00,weatherlink.com 1.10,2013-09-30 11:58:00,
2013-09-30 08:13:00,59.5,59.0,29.97,SW,228,1.0,-999.0,97,-99.99,,,0.00,weatherlink.com 1.10,2013-09-30 12:13:00,
2013-09-30 08:28:00,59.4,59.0,29.98,WSW,239,0.0,-999.0,97,-99.99,,,0.00,weatherlink.com 1.10,2013-09-30 12:28:00,
2013-09-30 08:43:00,59.4,59.0,29.98,West,263,1.0,-999.0,97,-99.99,,,0.00,weatherlink.com 1.10,2013-09-30 12:43:00,
2013-09-30 08:58:00,59.4,58.0,29.98,WSW,244,0.0,-999.0,96,-99.99,,,0.00,weatherlink.com 1.10,2013-09-30 12:58:00,
2013-09-30 09:13:00,59.6,59.0,29.98,WSW,243,1.0,-999.0,96,-99.99,,,0.00,weatherlink.com 1.10,2013-09-30 13:13:00,
2013-09-30 09:29:00,59.6,59.0,29.98,SW,222,4.0,-999.0,96,-99.99,,,0.00,weatherlink.com 1.10,2013-09-30 13:29:00,
2013-09-30 09:44:00,59.5,58.0,29.97,SW,219,0.0,-999.0,96,-99.99,,,0.00,weatherlink.com 1.10,2013-09-30 13:44:00,
2013-09-30 09:59:00,59.6,58.0,29.98,SW,219,0.0,-999.0,95,-99.99,,,0.00,weatherlink.com 1.10,2013-09-30 13:59:00,
2013-09-30 10:14:00,59.8,58.0,29.97,SSE,150,0.0,-999.0,95,-99.99,,,0.00,weatherlink.com 1.10,2013-09-30 14:14:00,
2013-09-30 10:29:00,60.3,59.0,29.98,SSE,158,0.0,-999.0,95,-99.99,,,0.00,weatherlink.com 1.10,2013-09-30 14:29:00,
2013-09-30 10:44:00,60.5,59.0,29.97,SSE,158,0.0,-999.0,94,-99.99,,,0.00,weatherlink.com 1.10,2013-09-30 14:44:00,
2013-09-30 10:59:00,60.9,59.0,29.98,SSW,195,0.0,-999.0,94,-99.99,,,0.00,weatherlink.com 1.10,2013-09-30 14:59:00,
2013-09-30 11:14:00,61.0,59.0,29.98,SSW,192,0.0,-999.0,92,-99.99,,,0.00,weatherlink.com 1.10,2013-09-30 15:14:00,
2013-09-30 11:29:00,61.4,59.0,29.97,SE,141,0.0,-999.0,93,-99.99,,,0.00,weatherlink.com 1.10,2013-09-30 15:29:00,
2013-09-30 11:44:00,61.8,60.0,29.97,SSW,201,0.0,-999.0,92,-99.99,,,0.00,weatherlink.com 1.10,2013-09-30 15:44:00,
2013-09-30 11:59:00,62.7,60.0,29.96,South,184,0.0,-999.0,90,-99.99,,,0.00,weatherlink.com 1.10,2013-09-30 15:59:00,
2013-09-30 12:14:00,63.1,60.0,29.97,SW,214,3.0,-999.0,89,-99.99,,,0.00,weatherlink.com 1.10,2013-09-30 16:14:00,
2013-09-30 12:29:00,63.9,60.0,29.98,SW,234,7.0,-999.0,88,-99.99,,,0.00,weatherlink.com 1.10,2013-09-30 16:29:00,
2013-09-30 12:44:00,64.4,61.0,29.97,West,278,1.0,-999.0,87,-99.99,,,0.00,weatherlink.com 1.10,2013-09-30 16:44:00,
2013-09-30 12:59:00,65.6,61.0,29.97,WSW,257,4.0,-999.0,85,-99.99,,,0.00,weatherlink.com 1.10,2013-09-30 16:59:00,
2013-09-30 13:14:00,66.3,62.0,29.96,SSW,208,7.0,-999.0,85,-99.99,,,0.00,weatherlink.com 1.10,2013-09-30 17:14:00,
2013-09-30 13:29:00,67.5,62.0,29.95,SSW,210,4.0,-999.0,82,-99.99,,,0.00,weatherlink.com 1.10,2013-09-30 17:29:00,
2013-09-30 13:44:00,68.9,61.0,29.95,South,173,2.0,-999.0,76,-99.99,,,0.00,weatherlink.com 1.10,2013-09-30 17:44:00,
2013-09-30 13:59:00,70.2,62.0,29.93,SW,223,5.0,-999.0,74,-99.99,,,0.00,weatherlink.com 1.10,2013-09-30 17:59:00,
2013-09-30 14:14:00,70.6,61.0,29.93,West,275,5.0,-999.0,71,-99.99,,,0.00,weatherlink.com 1.10,2013-09-30 18:14:00,
2013-09-30 14:29:00,71.7,61.0,29.92,SW,220,10.0,-999.0,70,-99.99,,,0.00,weatherlink.com 1.10,2013-09-30 18:29:00,
2013-09-30 14:44:00,72.4,61.0,29.91,SW,228,5.0,-999.0,68,-99.99,,,0.00,weatherlink.com 1.10,2013-09-30 18:44:00,
2013-09-30 14:59:00,72.5,60.0,29.91,SW,223,8.0,-999.0,66,-99.99,,,0.00,weatherlink.com 1.10,2013-09-30 18:59:00,
2013-09-30 15:14:00,73.0,59.0,29.90,SSW,192,1.0,-999.0,62,-99.99,,,0.00,weatherlink.com 1.10,2013-09-30 19:14:00,
2013-09-30 15:29:00,72.7,61.0,29.90,SW,229,6.0,-999.0,67,-99.99,,,0.00,weatherlink.com 1.10,2013-09-30 19:29:00,
2013-09-30 15:44:00,74.0,61.0,29.89,SW,218,13.0,-999.0,63,-99.99,,,0.00,weatherlink.com 1.10,2013-09-30 19:44:00,
2013-09-30 15:59:00,74.2,62.0,29.89,SSW,211,7.0,-999.0,65,-99.99,,,0.00,weatherlink.com 1.10,2013-09-30 19:59:00,
2013-09-30 16:15:00,73.5,60.0,29.88,SSW,197,11.0,-999.0,62,-99.99,,,0.00,weatherlink.com 1.10,2013-09-30 20:15:00,
2013-09-30 16:30:00,74.0,60.0,29.89,SSW,193,12.0,-999.0,61,-99.99,,,0.00,weatherlink.com 1.10,2013-09-30 20:30:00,
2013-09-30 16:45:00,74.1,59.0,29.89,SSW,198,6.0,-999.0,60,-99.99,,,0.00,weatherlink.com 1.10,2013-09-30 20:45:00,
2013-09-30 17:00:00,74.0,60.0,29.89,SSW,210,9.0,-999.0,61,-99.99,,,0.00,weatherlink.com 1.10,2013-09-30 21:00:00,
2013-09-30 17:15:00,73.5,60.0,29.89,SW,225,4.0,-999.0,62,-99.99,,,0.00,weatherlink.com 1.10,2013-09-30 21:15:00,
2013-09-30 17:30:00,73.1,60.0,29.89,SW,225,7.0,-999.0,63,-99.99,,,0.00,weatherlink.com 1.10,2013-09-30 21:30:00,
2013-09-30 18:00:00,73.4,60.0,29.89,SSW,209,4.0,-999.0,63,-99.99,,,0.00,weatherlink.com 1.10,2013-09-30 22:00:00,
2013-09-30 18:15:00,73.6,60.0,29.89,SW,219,7.0,-999.0,63,-99.99,,,0.00,weatherlink.com 1.10,2013-09-30 22:15:00,
2013-09-30 18:30:00,73.2,60.0,29.89,SSW,212,4.0,-999.0,63,-99.99,,,0.00,weatherlink.com 1.10,2013-09-30 22:30:00,
2013-09-30 18:45:00,72.7,60.0,29.89,SSW,195,6.0,-999.0,64,-99.99,,,0.00,weatherlink.com 1.10,2013-09-30 22:45:00,
2013-09-30 19:00:00,71.9,59.0,29.88,SSW,201,6.0,-999.0,65,-99.99,,,0.00,weatherlink.com 1.10,2013-09-30 23:00:00,
2013-09-30 19:15:00,70.6,59.0,29.88,SSW,200,4.0,-999.0,66,-99.99,,,0.00,weatherlink.com 1.10,2013-09-30 23:15:00,
2013-09-30 19:30:00,69.2,58.0,29.89,SSW,200,1.0,-999.0,68,-99.99,,,0.00,weatherlink.com 1.10,2013-09-30 23:30:00,
2013-09-30 19:45:00,68.0,58.0,29.89,SSW,200,0.0,-999.0,70,-99.99,,,0.00,weatherlink.com 1.10,2013-09-30 23:45:00,
2013-09-30 20:00:00,67.4,58.0,29.90,SSW,200,0.0,-999.0,72,-99.99,,,0.00,weatherlink.com 1.10,2013-10-01 00:00:00,
2013-09-30 20:15:00,66.6,58.0,29.90,SSW,200,0.0,-999.0,74,-99.99,,,0.00,weatherlink.com 1.10,2013-10-01 00:15:00,
2013-09-30 20:30:00,65.4,58.0,29.90,SSW,200,0.0,-999.0,77,-99.99,,,0.00,weatherlink.com 1.10,2013-10-01 00:30:00,
2013-09-30 20:45:00,64.3,58.0,29.91,SSW,200,0.0,-999.0,80,-99.99,,,0.00,weatherlink.com 1.10,2013-10-01 00:45:00,
2013-09-30 21:00:00,63.6,58.0,29.91,SSW,200,0.0,-999.0,82,-99.99,,,0.00,weatherlink.com 1.10,2013-10-01 01:00:00,
2013-09-30 21:15:00,62.9,58.0,29.91,SSW,200,0.0,-999.0,84,-99.99,,,0.00,weatherlink.com 1.10,2013-10-01 01:15:00,
2013-09-30 21:30:00,62.4,58.0,29.91,SSW,200,0.0,-999.0,86,-99.99,,,0.00,weatherlink.com 1.10,2013-10-01 01:30:00,
2013-09-30 21:45:00,61.9,58.0,29.92,SSW,200,0.0,-999.0,88,-99.99,,,0.00,weatherlink.com 1.10,2013-10-01 01:45:00,
2013-09-30 22:00:00,61.7,59.0,29.92,SSW,200,0.0,-999.0,89,-99.99,,,0.00,weatherlink.com 1.10,2013-10-01 02:00:00,
2013-09-30 22:15:00,61.4,59.0,29.93,SSW,200,0.0,-999.0,91,-99.99,,,0.00,weatherlink.com 1.10,2013-10-01 02:15:00,
2013-09-30 22:30:00,61.2,59.0,29.93,SSW,200,0.0,-999.0,92,-99.99,,,0.00,weatherlink.com 1.10,2013-10-01 02:30:00,
2013-09-30 22:45:00,61.2,60.0,29.93,SSW,200,0.0,-999.0,94,-99.99,,,0.00,weatherlink.com 1.10,2013-10-01 02:45:00,
2013-09-30 23:00:00,61.0,59.0,29.93,SSW,200,0.0,-999.0,94,-99.99,,,0.00,weatherlink.com 1.10,2013-10-01 03:00:00,
2013-09-30 23:15:00,61.0,60.0,29.93,SSW,200,0.0,-999.0,96,-99.99,,,0.00,weatherlink.com 1.10,2013-10-01 03:15:00,
2013-09-30 23:30:00,61.7,61.0,29.93,SSW,200,1.0,-999.0,96,-99.99,,,0.00,weatherlink.com 1.10,2013-10-01 03:30:00,
2013-09-30 23:45:00,61.8,61.0,29.93,SSW,200,0.0,-999.0,96,-99.99,,,0.00,weatherlink.com 1.10,2013-10-01 03:45:00,